Adams Cove, New York
Current Conditions -  °F | °C
As of 10:07 AM on Saturday 20 Dec 2014 (Local Time) from KART Reporting Station
Few Clouds Few Clouds  
Wind Chill: 16°   Ceiling: Unl
Heat Index: 22°   Visibility: 10mi
Dew Point: 15°   Wind: 5mph
Humidity: 75%   Direction: 50°NE
Pressure: 30.32"   Gusts: NA
Location:  44.0116°N, 76.0789°W
Report Text: KART 201507Z AUTO 05004KT 10SM FEW008 M06/M09 A3032 RMK AO2 T10561094
Loading
Personal Weather Stations






























Interactive Weather Map New forecast layout! Learn more

10-Day Weather Forecast

Advertisements
Track Severe Weather on mobile